createdAt,value
2023-05-26T08:52:23.614Z,102342.13
2023-05-26T08:54:51.177Z,102341.47
2023-05-26T08:57:19.897Z,102343.78
2023-05-26T08:59:48.090Z,102350.78
2023-05-26T09:02:15.070Z,102345.16
2023-05-26T09:04:41.877Z,102345.06
2023-05-26T09:07:24.651Z,102341.91
2023-05-26T09:09:54.761Z,102333.59
2023-05-26T09:12:21.668Z,102344.59
2023-05-26T09:14:48.582Z,102344.88
2023-05-26T09:17:15.565Z,102334.53
2023-05-26T09:19:42.778Z,102346.47
2023-05-26T09:22:11.924Z,102336.66
2023-05-26T09:24:51.866Z,102343.78
2023-05-26T09:27:20.158Z,102337.81
2023-05-26T09:29:53.894Z,102341.13
2023-05-26T09:32:24.748Z,102334.38
2023-05-26T09:34:52.663Z,102343.38
2023-05-26T09:37:19.645Z,102349.72
2023-05-26T09:39:46.707Z,102341.97
2023-05-26T09:42:13.611Z,102345.84
2023-05-26T09:44:40.818Z,102336.28
2023-05-26T09:47:07.936Z,102346.47
2023-05-26T09:49:34.883Z,102338.44
2023-05-26T09:52:13.115Z,102336.63
2023-05-26T09:54:41.350Z,102331.44
2023-05-26T09:57:15.372Z,102338.97
2023-05-26T09:59:43.192Z,102342.00
2023-05-26T10:02:23.638Z,102340.72
2023-05-26T10:04:51.542Z,102342.22
2023-05-26T10:07:20.268Z,102331.69
2023-05-26T10:09:55.158Z,102339.69
2023-05-26T10:12:28.192Z,102326.66
2023-05-26T10:14:55.751Z,102323.66
2023-05-26T10:17:26.382Z,102320.28
2023-05-26T10:19:55.332Z,102329.13
2023-05-26T10:22:36.915Z,102338.59
2023-05-26T10:25:19.455Z,102328.59
2023-05-26T10:27:55.411Z,102325.00
2023-05-26T10:30:23.678Z,102328.06
2023-05-26T10:32:53.618Z,102319.63
2023-05-26T10:35:21.486Z,102327.06
2023-05-26T10:37:56.026Z,102322.41
2023-05-26T10:40:35.559Z,102314.19
2023-05-26T10:43:06.732Z,102316.28
2023-05-26T10:45:34.482Z,102318.97
2023-05-26T10:48:13.487Z,102312.78
2023-05-26T10:50:55.631Z,102323.91
2023-05-26T10:53:23.530Z,102319.66
2023-05-26T10:55:55.722Z,102322.47
2023-05-26T10:58:47.352Z,102323.47
2023-05-26T11:01:35.996Z,102304.94
2023-05-26T11:04:10.324Z,102312.63
2023-05-26T11:06:58.019Z,102309.97
2023-05-26T11:09:27.170Z,102316.66
2023-05-26T11:11:58.829Z,102326.25
2023-05-26T11:14:27.799Z,102310.78
2023-05-26T11:16:59.797Z,102317.06
2023-05-26T11:19:39.981Z,102319.47
2023-05-26T11:22:08.963Z,102320.91
2023-05-26T11:24:36.613Z,102322.19
2023-05-26T11:27:04.964Z,102315.41
2023-05-26T11:29:32.991Z,102314.22
2023-05-26T11:32:00.234Z,102316.84
2023-05-26T11:34:27.398Z,102310.25
2023-05-26T11:36:55.373Z,102310.34
2023-05-26T11:39:23.507Z,102305.81
2023-05-26T11:41:50.927Z,102313.91
2023-05-26T11:44:17.906Z,102305.78
2023-05-26T11:46:48.270Z,102312.44
2023-05-26T11:49:16.536Z,102310.78
2023-05-26T11:51:48.116Z,102320.16
2023-05-26T11:54:16.247Z,102301.16
2023-05-26T11:56:45.046Z,102304.38
2023-05-26T11:59:17.687Z,102301.94
2023-05-26T12:01:45.889Z,102307.06
2023-05-26T12:04:13.549Z,102308.44
2023-05-26T12:06:44.853Z,102306.22
2023-05-26T12:09:22.770Z,102298.47
2023-05-26T12:11:51.981Z,102300.34
2023-05-26T12:14:19.090Z,102312.44
2023-05-26T12:16:48.036Z,102306.47
2023-05-26T12:19:17.743Z,102307.13
2023-05-26T12:21:49.352Z,102306.56
2023-05-26T12:24:30.261Z,102302.69
2023-05-26T12:26:57.525Z,102303.88
2023-05-26T12:29:24.348Z,102298.91
2023-05-26T12:31:53.288Z,102309.47
2023-05-26T12:34:21.074Z,102305.34
2023-05-26T12:36:48.406Z,102300.53
2023-05-26T12:39:16.087Z,102299.84
2023-05-26T12:41:43.516Z,102303.31
2023-05-26T12:44:10.470Z,102304.69
2023-05-26T12:46:40.585Z,102301.88
2023-05-26T12:49:11.474Z,102296.13
2023-05-26T12:51:39.721Z,102298.91
2023-05-26T12:54:07.811Z,102304.00
2023-05-26T12:56:34.802Z,102296.81
2023-05-26T12:59:10.526Z,102291.53
2023-05-26T13:01:44.843Z,102286.16
2023-05-26T13:04:11.903Z,102292.63
2023-05-26T13:06:38.818Z,102279.41
2023-05-26T13:09:06.014Z,102290.75
2023-05-26T13:11:32.858Z,102296.19
2023-05-26T13:13:59.718Z,102290.13
2023-05-26T13:16:27.092Z,102295.53
2023-05-26T13:18:54.200Z,102280.94
2023-05-26T13:21:21.085Z,102286.00
2023-05-26T13:23:48.164Z,102284.75
2023-05-26T13:26:14.973Z,102283.56
2023-05-26T13:28:41.798Z,102282.34
2023-05-26T13:31:08.942Z,102274.19
2023-05-26T13:33:35.825Z,102281.31
2023-05-26T13:36:02.650Z,102278.94
2023-05-26T13:38:29.399Z,102278.16
2023-05-26T13:41:00.157Z,102275.66
2023-05-26T13:43:27.461Z,102269.00
2023-05-26T13:45:55.084Z,102279.88
2023-05-26T13:48:25.615Z,102276.69
2023-05-26T13:50:53.596Z,102270.06
2023-05-26T13:53:20.640Z,102277.84
2023-05-26T13:55:47.429Z,102274.75
2023-05-26T13:58:14.930Z,102276.53
2023-05-26T14:00:41.971Z,102284.84
2023-05-26T14:03:08.870Z,102280.22
2023-05-26T14:05:35.937Z,102283.03
2023-05-26T14:08:07.750Z,102272.44
2023-05-26T14:10:35.284Z,102274.19
2023-05-26T14:13:02.471Z,102280.47
2023-05-26T14:15:30.728Z,102273.06
2023-05-26T14:18:07.466Z,102280.88
2023-05-26T14:22:10.222Z,102291.38
2023-05-26T14:23:24.261Z,102274.75
2023-05-26T14:25:53.767Z,102284.03
2023-05-26T14:28:20.545Z,102278.06
2023-05-26T14:30:47.770Z,102281.03
2023-05-26T14:33:14.775Z,102278.88
2023-05-26T14:35:42.169Z,102277.81
2023-05-26T14:38:09.010Z,102279.38
2023-05-26T14:40:38.121Z,102276.69
2023-05-26T14:43:05.213Z,102279.13
2023-05-26T14:45:32.587Z,102279.22
2023-05-26T14:47:59.576Z,102280.09
2023-05-26T14:50:26.648Z,102279.75
2023-05-26T14:52:53.458Z,102274.91
2023-05-26T14:55:21.515Z,102279.63
2023-05-26T14:57:48.300Z,102276.16
2023-05-26T15:00:15.878Z,102284.31
2023-05-26T15:02:43.007Z,102271.88
2023-05-26T15:05:10.394Z,102275.34
2023-05-26T15:07:38.045Z,102271.03
2023-05-26T15:10:06.157Z,102279.63
2023-05-26T15:12:36.455Z,102271.22
2023-05-26T15:15:03.582Z,102272.16
2023-05-26T15:17:30.747Z,102267.78
2023-05-26T15:19:58.894Z,102279.59
2023-05-26T15:22:25.989Z,102279.34
2023-05-26T15:24:53.061Z,102271.84
2023-05-26T15:27:20.113Z,102277.47
2023-05-26T15:29:47.065Z,102285.19
2023-05-26T15:32:17.015Z,102272.94
2023-05-26T15:34:45.224Z,102281.41
2023-05-26T15:37:12.192Z,102276.59
2023-05-26T15:39:39.158Z,102275.72
2023-05-26T15:42:07.521Z,102272.31
2023-05-26T15:44:35.585Z,102271.50
2023-05-26T15:47:02.810Z,102282.97
2023-05-26T15:49:29.817Z,102274.03
2023-05-26T15:51:56.746Z,102268.28
2023-05-26T15:54:23.714Z,102272.19
2023-05-26T15:56:50.744Z,102267.78
2023-05-26T15:59:18.172Z,102279.94
2023-05-26T16:01:45.021Z,102271.09
2023-05-26T16:04:12.136Z,102273.47
2023-05-26T16:06:39.055Z,102270.41
2023-05-26T16:09:06.466Z,102269.56
2023-05-26T16:11:34.302Z,102278.34
2023-05-26T16:14:01.282Z,102277.44
2023-05-26T16:16:28.668Z,102274.25
2023-05-26T16:18:56.053Z,102274.81
2023-05-26T16:21:22.906Z,102273.56
2023-05-26T16:23:49.994Z,102273.22
2023-05-26T16:26:16.978Z,102270.59
2023-05-26T16:28:43.852Z,102276.88
2023-05-26T16:31:11.183Z,102272.25
2023-05-26T16:33:38.188Z,102264.78
2023-05-26T16:36:05.222Z,102259.09
2023-05-26T16:38:32.306Z,102268.22
2023-05-26T16:40:59.468Z,102263.66
2023-05-26T16:43:46.907Z,102267.41
2023-05-26T16:46:13.258Z,102270.84
2023-05-26T16:48:40.279Z,102268.34
2023-05-26T16:51:07.123Z,102268.53
2023-05-26T16:53:33.973Z,102272.34
2023-05-26T16:56:01.546Z,102276.03
2023-05-26T16:58:28.863Z,102272.34
2023-05-26T17:00:55.775Z,102268.19
2023-05-26T17:03:22.783Z,102263.88
2023-05-26T17:05:49.618Z,102266.50
2023-05-26T17:08:16.504Z,102263.06
2023-05-26T17:10:45.483Z,102263.50
2023-05-26T17:13:12.659Z,102268.50
2023-05-26T17:15:40.197Z,102263.06
2023-05-26T17:18:07.205Z,102268.38
2023-05-26T17:20:34.916Z,102271.69
2023-05-26T17:23:02.707Z,102271.31
2023-05-26T17:25:29.601Z,102265.47
2023-05-26T17:27:57.048Z,102275.34
2023-05-26T17:30:24.113Z,102281.13
2023-05-26T17:32:51.313Z,102280.13
2023-05-26T17:35:18.394Z,102285.44
2023-05-26T17:37:45.278Z,102285.91
2023-05-26T17:40:12.407Z,102290.56
2023-05-26T17:42:40.215Z,102285.59
2023-05-26T17:45:07.892Z,102293.19
2023-05-26T17:47:34.784Z,102289.59
2023-05-26T17:50:01.716Z,102294.47
2023-05-26T17:52:28.505Z,102297.56
2023-05-26T17:54:58.598Z,102296.81
2023-05-26T17:57:25.483Z,102306.75
